sensor_id;sensor_type;location;lat;lon;timestamp;pressure;altitude;pressure_sealevel;temperature;humidity
55022;BME280;68328;35.990;-86.756;2023-11-21T00:01:27;98648.34;;;24.23;35.27
55022;BME280;68328;35.990;-86.756;2023-11-21T00:03:53;98637.55;;;24.38;35.63
55022;BME280;68328;35.990;-86.756;2023-11-21T00:06:17;98636.12;;;24.38;35.69
55022;BME280;68328;35.990;-86.756;2023-11-21T00:08:43;98639.18;;;24.48;35.49
55022;BME280;68328;35.990;-86.756;2023-11-21T00:11:08;98648.56;;;24.19;36.56
55022;BME280;68328;35.990;-86.756;2023-11-21T00:13:33;98648.59;;;24.20;37.24
55022;BME280;68328;35.990;-86.756;2023-11-21T00:16:00;98660.34;;;24.39;37.17
55022;BME280;68328;35.990;-86.756;2023-11-21T00:18:24;98672.55;;;24.22;37.51
55022;BME280;68328;35.990;-86.756;2023-11-21T00:20:49;98679.13;;;24.51;37.25
55022;BME280;68328;35.990;-86.756;2023-11-21T00:23:15;98679.18;;;24.56;37.17
55022;BME280;68328;35.990;-86.756;2023-11-21T00:25:40;98674.56;;;23.99;37.26
55022;BME280;68328;35.990;-86.756;2023-11-21T00:28:07;98676.14;;;24.28;37.56
55022;BME280;68328;35.990;-86.756;2023-11-21T00:30:31;98685.35;;;24.07;37.58
55022;BME280;68328;35.990;-86.756;2023-11-21T00:32:56;98688.99;;;24.26;37.64
55022;BME280;68328;35.990;-86.756;2023-11-21T00:35:21;98686.24;;;24.20;37.64
55022;BME280;68328;35.990;-86.756;2023-11-21T00:37:46;98683.58;;;23.87;37.89
55022;BME280;68328;35.990;-86.756;2023-11-21T00:40:14;98679.77;;;23.98;37.63
55022;BME280;68328;35.990;-86.756;2023-11-21T00:42:38;98675.17;;;23.54;38.07
55022;BME280;68328;35.990;-86.756;2023-11-21T00:45:04;98663.06;;;23.86;37.79
55022;BME280;68328;35.990;-86.756;2023-11-21T00:47:28;98663.94;;;23.72;37.80
55022;BME280;68328;35.990;-86.756;2023-11-21T00:49:54;98668.20;;;23.52;37.80
55022;BME280;68328;35.990;-86.756;2023-11-21T00:52:20;98670.10;;;23.14;38.37
55022;BME280;68328;35.990;-86.756;2023-11-21T00:54:44;98666.35;;;23.36;38.78
55022;BME280;68328;35.990;-86.756;2023-11-21T00:57:10;98661.32;;;23.28;38.88
55022;BME280;68328;35.990;-86.756;2023-11-21T00:59:35;98653.47;;;23.26;39.04
55022;BME280;68328;35.990;-86.756;2023-11-21T01:02:02;98629.48;;;23.00;38.88
55022;BME280;68328;35.990;-86.756;2023-11-21T01:04:26;98622.69;;;22.92;38.72
55022;BME280;68328;35.990;-86.756;2023-11-21T01:06:51;98627.69;;;23.21;38.56
55022;BME280;68328;35.990;-86.756;2023-11-21T01:09:16;98623.51;;;23.37;38.39
55022;BME280;68328;35.990;-86.756;2023-11-21T01:11:42;98619.64;;;23.48;37.94
55022;BME280;68328;35.990;-86.756;2023-11-21T01:14:09;98625.29;;;23.61;37.90
55022;BME280;68328;35.990;-86.756;2023-11-21T01:16:32;98620.33;;;23.58;37.73
55022;BME280;68328;35.990;-86.756;2023-11-21T01:18:58;98622.82;;;23.89;37.38
55022;BME280;68328;35.990;-86.756;2023-11-21T01:21:24;98629.57;;;23.97;37.50
55022;BME280;68328;35.990;-86.756;2023-11-21T01:23:50;98627.30;;;23.51;37.56
55022;BME280;68328;35.990;-86.756;2023-11-21T01:26:15;98616.46;;;23.59;37.24
55022;BME280;68328;35.990;-86.756;2023-11-21T01:28:41;98622.01;;;23.60;37.21
55022;BME280;68328;35.990;-86.756;2023-11-21T01:31:06;98623.69;;;23.72;37.18
55022;BME280;68328;35.990;-86.756;2023-11-21T01:33:34;98645.30;;;23.81;37.42
55022;BME280;68328;35.990;-86.756;2023-11-21T01:35:58;98650.15;;;23.69;37.16
55022;BME280;68328;35.990;-86.756;2023-11-21T01:38:23;98656.92;;;23.36;37.04
55022;BME280;68328;35.990;-86.756;2023-11-21T01:40:50;98661.12;;;23.44;37.28
55022;BME280;68328;35.990;-86.756;2023-11-21T01:43:14;98663.91;;;22.96;37.46
55022;BME280;68328;35.990;-86.756;2023-11-21T01:45:39;98658.81;;;23.37;37.94
55022;BME280;68328;35.990;-86.756;2023-11-21T01:48:05;98650.92;;;23.22;37.53
55022;BME280;68328;35.990;-86.756;2023-11-21T01:50:33;98646.36;;;23.14;37.40
55022;BME280;68328;35.990;-86.756;2023-11-21T01:52:57;98649.25;;;23.17;37.25
55022;BME280;68328;35.990;-86.756;2023-11-21T01:55:22;98647.68;;;23.03;37.71
55022;BME280;68328;35.990;-86.756;2023-11-21T01:57:47;98641.50;;;23.00;37.53
55022;BME280;68328;35.990;-86.756;2023-11-21T02:00:14;98640.93;;;22.40;37.91
55022;BME280;68328;35.990;-86.756;2023-11-21T02:02:39;98632.64;;;22.18;38.38
55022;BME280;68328;35.990;-86.756;2023-11-21T02:05:04;98621.20;;;22.30;38.57
55022;BME280;68328;35.990;-86.756;2023-11-21T02:07:30;98623.69;;;22.40;38.22
55022;BME280;68328;35.990;-86.756;2023-11-21T02:09:54;98611.76;;;22.99;37.87
55022;BME280;68328;35.990;-86.756;2023-11-21T02:12:20;98592.33;;;22.71;37.60
55022;BME280;68328;35.990;-86.756;2023-11-21T02:14:46;98596.04;;;23.10;37.20
55022;BME280;68328;35.990;-86.756;2023-11-21T02:17:10;98594.06;;;23.02;37.46
55022;BME280;68328;35.990;-86.756;2023-11-21T02:19:36;98590.50;;;22.74;37.38
55022;BME280;68328;35.990;-86.756;2023-11-21T02:22:01;98588.92;;;23.01;37.56
55022;BME280;68328;35.990;-86.756;2023-11-21T02:24:26;98597.08;;;22.62;37.40
55022;BME280;68328;35.990;-86.756;2023-11-21T02:26:53;98596.46;;;22.53;37.46
55022;BME280;68328;35.990;-86.756;2023-11-21T02:29:18;98604.58;;;22.54;37.75
55022;BME280;68328;35.990;-86.756;2023-11-21T02:31:44;98604.63;;;22.52;37.76
55022;BME280;68328;35.990;-86.756;2023-11-21T02:34:08;98616.58;;;22.59;37.63
55022;BME280;68328;35.990;-86.756;2023-11-21T02:36:34;98622.76;;;22.19;37.68
55022;BME280;68328;35.990;-86.756;2023-11-21T02:38:59;98629.10;;;22.98;37.54
55022;BME280;68328;35.990;-86.756;2023-11-21T02:41:26;98637.72;;;22.33;38.29
55022;BME280;68328;35.990;-86.756;2023-11-21T02:43:50;98653.14;;;22.48;38.82
55022;BME280;68328;35.990;-86.756;2023-11-21T02:46:16;98674.31;;;22.10;39.85
55022;BME280;68328;35.990;-86.756;2023-11-21T02:48:41;98690.73;;;21.47;41.36
55022;BME280;68328;35.990;-86.756;2023-11-21T02:51:06;98702.94;;;21.35;42.20
55022;BME280;68328;35.990;-86.756;2023-11-21T02:53:32;98689.66;;;21.31;42.84
55022;BME280;68328;35.990;-86.756;2023-11-21T02:55:57;98668.10;;;20.89;43.58
55022;BME280;68328;35.990;-86.756;2023-11-21T02:58:23;98653.39;;;20.53;44.75
55022;BME280;68328;35.990;-86.756;2023-11-21T03:00:47;98635.54;;;20.59;45.12
55022;BME280;68328;35.990;-86.756;2023-11-21T03:03:13;98607.94;;;20.09;45.58
55022;BME280;68328;35.990;-86.756;2023-11-21T03:05:39;98600.81;;;19.91;46.43
55022;BME280;68328;35.990;-86.756;2023-11-21T03:08:04;98612.01;;;20.03;46.02
55022;BME280;68328;35.990;-86.756;2023-11-21T03:10:30;98590.56;;;20.51;45.08
55022;BME280;68328;35.990;-86.756;2023-11-21T03:12:55;98594.23;;;19.91;46.21
55022;BME280;68328;35.990;-86.756;2023-11-21T03:15:23;98600.63;;;20.27;45.20
55022;BME280;68328;35.990;-86.756;2023-11-21T03:17:48;98605.67;;;20.60;44.86
55022;BME280;68328;35.990;-86.756;2023-11-21T03:20:13;98600.05;;;20.39;45.46
55022;BME280;68328;35.990;-86.756;2023-11-21T03:22:38;98589.54;;;20.02;46.06
55022;BME280;68328;35.990;-86.756;2023-11-21T03:25:05;98579.28;;;20.58;45.26
55022;BME280;68328;35.990;-86.756;2023-11-21T03:27:31;98586.92;;;20.73;44.71
55022;BME280;68328;35.990;-86.756;2023-11-21T03:29:55;98578.01;;;20.82;44.69
55022;BME280;68328;35.990;-86.756;2023-11-21T03:32:21;98565.87;;;20.27;44.92
55022;BME280;68328;35.990;-86.756;2023-11-21T03:34:56;98563.79;;;20.24;45.72
55022;BME280;68328;35.990;-86.756;2023-11-21T03:37:13;98559.27;;;20.47;45.41
55022;BME280;68328;35.990;-86.756;2023-11-21T03:39:37;98565.11;;;20.72;44.76
55022;BME280;68328;35.990;-86.756;2023-11-21T03:42:02;98574.26;;;20.83;44.32
55022;BME280;68328;35.990;-86.756;2023-11-21T03:44:28;98579.66;;;21.08;44.43
55022;BME280;68328;35.990;-86.756;2023-11-21T03:46:53;98581.73;;;20.56;44.64
55022;BME280;68328;35.990;-86.756;2023-11-21T03:49:20;98589.61;;;20.65;44.17
55022;BME280;68328;35.990;-86.756;2023-11-21T03:51:45;98605.55;;;21.08;44.88
55022;BME280;68328;35.990;-86.756;2023-11-21T03:54:10;98610.91;;;21.14;44.43
55022;BME280;68328;35.990;-86.756;2023-11-21T03:56:36;98587.11;;;20.03;45.50
55022;BME280;68328;35.990;-86.756;2023-11-21T03:59:01;98570.97;;;20.25;46.77
55022;BME280;68328;35.990;-86.756;2023-11-21T04:01:27;98535.07;;;20.49;45.47
55022;BME280;68328;35.990;-86.756;2023-11-21T04:03:52;98508.69;;;20.27;46.27
55022;BME280;68328;35.990;-86.756;2023-11-21T04:06:18;98509.18;;;20.26;46.57
55022;BME280;68328;35.990;-86.756;2023-11-21T04:08:44;98531.23;;;20.42;46.62
55022;BME280;68328;35.990;-86.756;2023-11-21T04:11:09;98530.16;;;20.09;47.04
55022;BME280;68328;35.990;-86.756;2023-11-21T04:13:34;98535.73;;;20.04;47.09
55022;BME280;68328;35.990;-86.756;2023-11-21T04:16:02;98526.65;;;20.03;47.00
55022;BME280;68328;35.990;-86.756;2023-11-21T04:18:26;98529.90;;;20.42;46.42
55022;BME280;68328;35.990;-86.756;2023-11-21T04:20:50;98535.97;;;20.34;46.50
55022;BME280;68328;35.990;-86.756;2023-11-21T04:23:16;98529.11;;;20.12;46.52
55022;BME280;68328;35.990;-86.756;2023-11-21T04:25:41;98531.63;;;20.31;46.85
55022;BME280;68328;35.990;-86.756;2023-11-21T04:28:06;98522.18;;;19.77;47.36
55022;BME280;68328;35.990;-86.756;2023-11-21T04:30:32;98523.56;;;20.02;46.69
55022;BME280;68328;35.990;-86.756;2023-11-21T04:32:57;98509.43;;;20.00;46.84
55022;BME280;68328;35.990;-86.756;2023-11-21T04:35:22;98519.71;;;19.40;47.39
55022;BME280;68328;35.990;-86.756;2023-11-21T04:37:48;98514.41;;;19.92;47.29
55022;BME280;68328;35.990;-86.756;2023-11-21T04:40:13;98504.90;;;19.71;47.02
55022;BME280;68328;35.990;-86.756;2023-11-21T04:42:40;98506.11;;;19.30;47.50
55022;BME280;68328;35.990;-86.756;2023-11-21T04:45:07;98503.08;;;19.79;46.74
55022;BME280;68328;35.990;-86.756;2023-11-21T04:47:31;98496.39;;;19.98;46.49
55022;BME280;68328;35.990;-86.756;2023-11-21T04:49:56;98501.72;;;19.51;47.33
55022;BME280;68328;35.990;-86.756;2023-11-21T04:52:22;98504.48;;;19.07;48.33
55022;BME280;68328;35.990;-86.756;2023-11-21T04:54:48;98486.00;;;19.13;48.24
55022;BME280;68328;35.990;-86.756;2023-11-21T04:57:13;98490.36;;;18.68;49.38
55022;BME280;68328;35.990;-86.756;2023-11-21T04:59:40;98493.81;;;19.41;48.14
55022;BME280;68328;35.990;-86.756;2023-11-21T05:02:04;98501.06;;;19.47;47.55
55022;BME280;68328;35.990;-86.756;2023-11-21T05:04:30;98499.23;;;19.31;47.74
55022;BME280;68328;35.990;-86.756;2023-11-21T05:06:56;98489.13;;;19.58;48.16
55022;BME280;68328;35.990;-86.756;2023-11-21T05:09:21;98460.02;;;19.47;47.99
55022;BME280;68328;35.990;-86.756;2023-11-21T05:11:46;98471.82;;;19.27;48.60
55022;BME280;68328;35.990;-86.756;2023-11-21T05:14:11;98456.31;;;19.03;48.81
55022;BME280;68328;35.990;-86.756;2023-11-21T05:16:37;98459.70;;;19.01;49.17
55022;BME280;68328;35.990;-86.756;2023-11-21T05:19:04;98464.73;;;19.43;47.91
55022;BME280;68328;35.990;-86.756;2023-11-21T05:21:27;98452.64;;;19.79;46.86
55022;BME280;68328;35.990;-86.756;2023-11-21T05:23:53;98452.70;;;19.90;46.58
55022;BME280;68328;35.990;-86.756;2023-11-21T05:26:18;98448.07;;;19.98;45.88
55022;BME280;68328;35.990;-86.756;2023-11-21T05:28:44;98444.99;;;20.50;45.11
55022;BME280;68328;35.990;-86.756;2023-11-21T05:31:10;98442.45;;;20.92;44.48
55022;BME280;68328;35.990;-86.756;2023-11-21T05:33:34;98452.53;;;20.41;44.30
55022;BME280;68328;35.990;-86.756;2023-11-21T05:36:00;98452.76;;;20.09;45.34
55022;BME280;68328;35.990;-86.756;2023-11-21T05:38:25;98446.91;;;20.52;44.54
55022;BME280;68328;35.990;-86.756;2023-11-21T05:40:51;98428.59;;;20.52;44.03
55022;BME280;68328;35.990;-86.756;2023-11-21T05:43:17;98424.93;;;20.55;44.43
55022;BME280;68328;35.990;-86.756;2023-11-21T05:45:42;98407.20;;;20.46;44.37
55022;BME280;68328;35.990;-86.756;2023-11-21T05:48:08;98408.12;;;20.67;44.12
55022;BME280;68328;35.990;-86.756;2023-11-21T05:50:34;98420.71;;;20.53;43.96
55022;BME280;68328;35.990;-86.756;2023-11-21T05:52:59;98413.34;;;20.78;43.75
55022;BME280;68328;35.990;-86.756;2023-11-21T05:55:25;98413.18;;;20.30;44.10
55022;BME280;68328;35.990;-86.756;2023-11-21T05:57:50;98415.32;;;20.44;44.34
55022;BME280;68328;35.990;-86.756;2023-11-21T06:00:15;98418.54;;;19.72;45.37
55022;BME280;68328;35.990;-86.756;2023-11-21T06:02:41;98405.83;;;19.40;45.99
55022;BME280;68328;35.990;-86.756;2023-11-21T06:05:07;98416.35;;;19.74;45.60
55022;BME280;68328;35.990;-86.756;2023-11-21T06:07:32;98409.94;;;20.21;44.89
55022;BME280;68328;35.990;-86.756;2023-11-21T06:09:57;98404.40;;;20.58;43.99
55022;BME280;68328;35.990;-86.756;2023-11-21T06:12:22;98405.17;;;20.51;43.79
55022;BME280;68328;35.990;-86.756;2023-11-21T06:14:47;98405.91;;;20.58;43.79
55022;BME280;68328;35.990;-86.756;2023-11-21T06:17:12;98405.04;;;20.86;43.66
55022;BME280;68328;35.990;-86.756;2023-11-21T06:19:38;98414.46;;;20.97;43.16
55022;BME280;68328;35.990;-86.756;2023-11-21T06:22:05;98408.43;;;21.05;42.59
55022;BME280;68328;35.990;-86.756;2023-11-21T06:24:28;98420.62;;;20.89;42.82
55022;BME280;68328;35.990;-86.756;2023-11-21T06:26:54;98442.35;;;20.86;42.75
55022;BME280;68328;35.990;-86.756;2023-11-21T06:29:20;98449.29;;;21.27;42.45
55022;BME280;68328;35.990;-86.756;2023-11-21T06:31:44;98458.28;;;21.21;42.30
55022;BME280;68328;35.990;-86.756;2023-11-21T06:34:11;98464.52;;;21.16;42.28
55022;BME280;68328;35.990;-86.756;2023-11-21T06:36:35;98466.18;;;21.42;42.17
55022;BME280;68328;35.990;-86.756;2023-11-21T06:39:02;98467.33;;;21.25;42.70
55022;BME280;68328;35.990;-86.756;2023-11-21T06:41:27;98466.61;;;21.23;42.71
55022;BME280;68328;35.990;-86.756;2023-11-21T06:43:52;98478.35;;;21.39;42.96
55022;BME280;68328;35.990;-86.756;2023-11-21T06:46:20;98478.79;;;21.46;42.52
55022;BME280;68328;35.990;-86.756;2023-11-21T06:48:43;98478.29;;;21.61;42.45
55022;BME280;68328;35.990;-86.756;2023-11-21T06:51:09;98478.89;;;21.65;42.00
55022;BME280;68328;35.990;-86.756;2023-11-21T06:53:36;98497.38;;;21.79;42.03
55022;BME280;68328;35.990;-86.756;2023-11-21T06:56:00;98501.98;;;21.84;42.18
55022;BME280;68328;35.990;-86.756;2023-11-21T06:58:26;98488.95;;;21.61;43.11
55022;BME280;68328;35.990;-86.756;2023-11-21T07:00:51;98498.30;;;21.87;43.39
55022;BME280;68328;35.990;-86.756;2023-11-21T07:03:16;98517.50;;;21.94;43.42
55022;BME280;68328;35.990;-86.756;2023-11-21T07:05:42;98519.55;;;21.38;43.55
55022;BME280;68328;35.990;-86.756;2023-11-21T07:08:07;98519.06;;;21.69;43.42
55022;BME280;68328;35.990;-86.756;2023-11-21T07:10:33;98519.57;;;21.87;43.79
55022;BME280;68328;35.990;-86.756;2023-11-21T07:12:59;98532.12;;;21.63;43.61
55022;BME280;68328;35.990;-86.756;2023-11-21T07:15:24;98516.96;;;21.51;43.27
55022;BME280;68328;35.990;-86.756;2023-11-21T07:17:50;98502.23;;;21.58;43.28
55022;BME280;68328;35.990;-86.756;2023-11-21T07:20:15;98505.11;;;21.95;43.48
55022;BME280;68328;35.990;-86.756;2023-11-21T07:22:41;98518.14;;;21.69;43.55
55022;BME280;68328;35.990;-86.756;2023-11-21T07:25:07;98526.73;;;22.13;43.49
55022;BME280;68328;35.990;-86.756;2023-11-21T07:27:32;98555.53;;;21.71;43.38
55022;BME280;68328;35.990;-86.756;2023-11-21T07:29:58;98538.38;;;21.71;43.38
55022;BME280;68328;35.990;-86.756;2023-11-21T07:32:24;98545.07;;;22.03;43.19
55022;BME280;68328;35.990;-86.756;2023-11-21T07:34:49;98545.92;;;21.78;43.37
55022;BME280;68328;35.990;-86.756;2023-11-21T07:37:15;98526.02;;;22.19;43.40
55022;BME280;68328;35.990;-86.756;2023-11-21T07:39:39;98517.64;;;21.99;43.34
55022;BME280;68328;35.990;-86.756;2023-11-21T07:42:05;98510.67;;;22.17;43.54
55022;BME280;68328;35.990;-86.756;2023-11-21T07:44:30;98498.99;;;21.75;43.53
55022;BME280;68328;35.990;-86.756;2023-11-21T07:46:56;98484.14;;;21.82;43.48
55022;BME280;68328;35.990;-86.756;2023-11-21T07:49:22;98473.48;;;22.10;43.03
55022;BME280;68328;35.990;-86.756;2023-11-21T07:51:47;98465.25;;;22.35;43.13
55022;BME280;68328;35.990;-86.756;2023-11-21T07:54:13;98452.46;;;21.86;43.25
55022;BME280;68328;35.990;-86.756;2023-11-21T07:56:39;98463.69;;;21.85;43.31
55022;BME280;68328;35.990;-86.756;2023-11-21T07:59:04;98472.43;;;21.86;43.37
55022;BME280;68328;35.990;-86.756;2023-11-21T08:01:30;98480.71;;;21.91;43.21
55022;BME280;68328;35.990;-86.756;2023-11-21T08:03:55;98486.22;;;22.17;43.26
55022;BME280;68328;35.990;-86.756;2023-11-21T08:06:20;98499.68;;;22.21;43.22
55022;BME280;68328;35.990;-86.756;2023-11-21T08:08:46;98506.67;;;21.88;43.25
55022;BME280;68328;35.990;-86.756;2023-11-21T08:11:11;98505.13;;;21.87;43.08
55022;BME280;68328;35.990;-86.756;2023-11-21T08:13:37;98505.75;;;22.11;43.19
55022;BME280;68328;35.990;-86.756;2023-11-21T08:16:02;98505.02;;;21.77;43.34
55022;BME280;68328;35.990;-86.756;2023-11-21T08:18:27;98500.66;;;21.76;43.55
55022;BME280;68328;35.990;-86.756;2023-11-21T08:20:52;98503.61;;;21.71;43.52
55022;BME280;68328;35.990;-86.756;2023-11-21T08:23:18;98479.99;;;21.72;43.27
55022;BME280;68328;35.990;-86.756;2023-11-21T08:25:44;98498.27;;;21.94;43.44
55022;BME280;68328;35.990;-86.756;2023-11-21T08:28:09;98508.76;;;21.58;43.58
55022;BME280;68328;35.990;-86.756;2023-11-21T08:30:34;98507.92;;;21.76;43.78
55022;BME280;68328;35.990;-86.756;2023-11-21T08:32:59;98525.15;;;22.08;43.58
55022;BME280;68328;35.990;-86.756;2023-11-21T08:35:24;98525.52;;;22.12;43.57
55022;BME280;68328;35.990;-86.756;2023-11-21T08:37:51;98520.50;;;21.84;43.79
55022;BME280;68328;35.990;-86.756;2023-11-21T08:40:15;98509.69;;;22.11;43.59
55022;BME280;68328;35.990;-86.756;2023-11-21T08:42:40;98505.00;;;22.12;43.58
55022;BME280;68328;35.990;-86.756;2023-11-21T08:45:07;98506.96;;;21.92;43.51
55022;BME280;68328;35.990;-86.756;2023-11-21T08:47:31;98513.44;;;21.69;43.64
55022;BME280;68328;35.990;-86.756;2023-11-21T08:49:57;98509.26;;;21.91;43.59
55022;BME280;68328;35.990;-86.756;2023-11-21T08:52:22;98503.08;;;21.87;43.77
55022;BME280;68328;35.990;-86.756;2023-11-21T08:54:48;98508.33;;;21.67;43.70
55022;BME280;68328;35.990;-86.756;2023-11-21T08:57:13;98526.41;;;21.87;43.78
55022;BME280;68328;35.990;-86.756;2023-11-21T08:59:39;98534.08;;;22.18;43.57
55022;BME280;68328;35.990;-86.756;2023-11-21T09:02:05;98523.87;;;22.30;43.37
55022;BME280;68328;35.990;-86.756;2023-11-21T09:04:29;98517.41;;;22.37;43.25
55022;BME280;68328;35.990;-86.756;2023-11-21T09:06:54;98512.59;;;22.28;43.20
55022;BME280;68328;35.990;-86.756;2023-11-21T09:09:20;98503.27;;;22.39;43.10
55022;BME280;68328;35.990;-86.756;2023-11-21T09:11:45;98483.25;;;22.15;43.04
55022;BME280;68328;35.990;-86.756;2023-11-21T09:14:11;98479.48;;;22.18;42.88
55022;BME280;68328;35.990;-86.756;2023-11-21T09:16:35;98483.55;;;22.15;43.04
55022;BME280;68328;35.990;-86.756;2023-11-21T09:19:01;98497.21;;;22.05;43.20
55022;BME280;68328;35.990;-86.756;2023-11-21T09:21:26;98490.73;;;22.00;43.27
55022;BME280;68328;35.990;-86.756;2023-11-21T09:23:51;98494.24;;;22.05;43.24
55022;BME280;68328;35.990;-86.756;2023-11-21T09:26:17;98483.60;;;22.17;43.11
55022;BME280;68328;35.990;-86.756;2023-11-21T09:28:43;98472.57;;;22.25;42.95
55022;BME280;68328;35.990;-86.756;2023-11-21T09:31:07;98452.10;;;22.17;42.94
55022;BME280;68328;35.990;-86.756;2023-11-21T09:33:33;98425.54;;;22.12;42.94
55022;BME280;68328;35.990;-86.756;2023-11-21T09:35:59;98433.91;;;22.07;43.05
55022;BME280;68328;35.990;-86.756;2023-11-21T09:38:24;98428.17;;;22.19;43.21
55022;BME280;68328;35.990;-86.756;2023-11-21T09:40:49;98426.85;;;21.94;43.23
55022;BME280;68328;35.990;-86.756;2023-11-21T09:43:17;98417.00;;;22.05;43.02
55022;BME280;68328;35.990;-86.756;2023-11-21T09:45:41;98404.40;;;22.05;43.07
55022;BME280;68328;35.990;-86.756;2023-11-21T09:48:06;98386.04;;;22.05;43.04
55022;BME280;68328;35.990;-86.756;2023-11-21T09:50:33;98399.52;;;21.97;43.13
55022;BME280;68328;35.990;-86.756;2023-11-21T09:53:05;98407.29;;;21.94;43.17
55022;BME280;68328;35.990;-86.756;2023-11-21T09:55:22;98408.89;;;21.91;43.18
55022;BME280;68328;35.990;-86.756;2023-11-21T09:57:47;98409.31;;;21.90;43.21
55022;BME280;68328;35.990;-86.756;2023-11-21T10:00:13;98408.32;;;21.96;43.15
55022;BME280;68328;35.990;-86.756;2023-11-21T10:02:39;98406.28;;;22.00;43.05
55022;BME280;68328;35.990;-86.756;2023-11-21T10:05:03;98396.35;;;22.00;43.03
55022;BME280;68328;35.990;-86.756;2023-11-21T10:07:29;98394.10;;;22.02;43.00
55022;BME280;68328;35.990;-86.756;2023-11-21T10:09:54;98398.12;;;22.06;42.97
55022;BME280;68328;35.990;-86.756;2023-11-21T10:12:20;98392.28;;;21.99;42.97
55022;BME280;68328;35.990;-86.756;2023-11-21T10:14:48;98387.32;;;21.91;43.08
55022;BME280;68328;35.990;-86.756;2023-11-21T10:17:12;98385.11;;;22.12;43.09
55022;BME280;68328;35.990;-86.756;2023-11-21T10:19:37;98383.21;;;21.82;43.18
55022;BME280;68328;35.990;-86.756;2023-11-21T10:22:02;98370.32;;;21.83;43.24
55022;BME280;68328;35.990;-86.756;2023-11-21T10:24:26;98365.22;;;22.18;43.02
55022;BME280;68328;35.990;-86.756;2023-11-21T10:26:51;98365.18;;;22.02;42.90
55022;BME280;68328;35.990;-86.756;2023-11-21T10:29:17;98365.92;;;22.07;42.81
55022;BME280;68328;35.990;-86.756;2023-11-21T10:31:42;98368.72;;;21.97;42.87
55022;BME280;68328;35.990;-86.756;2023-11-21T10:34:14;98363.37;;;21.86;43.01
55022;BME280;68328;35.990;-86.756;2023-11-21T10:36:34;98365.58;;;21.84;43.06
55022;BME280;68328;35.990;-86.756;2023-11-21T10:38:58;98359.06;;;21.83;43.07
55022;BME280;68328;35.990;-86.756;2023-11-21T10:41:23;98370.28;;;22.32;43.03
55022;BME280;68328;35.990;-86.756;2023-11-21T10:43:48;98358.12;;;22.05;43.11
55022;BME280;68328;35.990;-86.756;2023-11-21T10:46:15;98366.89;;;21.82;43.07
55022;BME280;68328;35.990;-86.756;2023-11-21T10:48:41;98361.53;;;21.88;42.97
55022;BME280;68328;35.990;-86.756;2023-11-21T10:51:07;98358.24;;;21.84;42.94
55022;BME280;68328;35.990;-86.756;2023-11-21T10:53:30;98360.54;;;22.01;42.95
55022;BME280;68328;35.990;-86.756;2023-11-21T10:56:01;98357.83;;;21.72;43.00
55022;BME280;68328;35.990;-86.756;2023-11-21T10:58:21;98352.60;;;21.79;42.93
55022;BME280;68328;35.990;-86.756;2023-11-21T11:00:45;98353.43;;;21.86;42.81
55022;BME280;68328;35.990;-86.756;2023-11-21T11:03:11;98340.94;;;21.87;42.77
55022;BME280;68328;35.990;-86.756;2023-11-21T11:05:36;98353.02;;;21.68;42.72
55022;BME280;68328;35.990;-86.756;2023-11-21T11:08:05;98350.09;;;21.97;42.59
55022;BME280;68328;35.990;-86.756;2023-11-21T11:10:27;98339.01;;;21.96;42.57
55022;BME280;68328;35.990;-86.756;2023-11-21T11:12:51;98338.56;;;22.40;42.59
55022;BME280;68328;35.990;-86.756;2023-11-21T11:15:17;98327.42;;;22.32;42.66
55022;BME280;68328;35.990;-86.756;2023-11-21T11:17:42;98322.41;;;21.85;42.69
55022;BME280;68328;35.990;-86.756;2023-11-21T11:20:09;98328.07;;;22.15;42.62
55022;BME280;68328;35.990;-86.756;2023-11-21T11:22:40;98324.19;;;21.91;42.59
55022;BME280;68328;35.990;-86.756;2023-11-21T11:25:11;98325.22;;;22.19;42.49
55022;BME280;68328;35.990;-86.756;2023-11-21T11:27:30;98327.03;;;22.07;42.35
55022;BME280;68328;35.990;-86.756;2023-11-21T11:29:56;98333.05;;;22.41;42.22
55022;BME280;68328;35.990;-86.756;2023-11-21T11:32:21;98328.11;;;22.33;42.00
55022;BME280;68328;35.990;-86.756;2023-11-21T11:34:45;98328.22;;;22.17;41.79
55022;BME280;68328;35.990;-86.756;2023-11-21T11:37:06;98326.45;;;22.38;41.77
55022;BME280;68328;35.990;-86.756;2023-11-21T11:39:30;98320.90;;;22.31;41.85
55022;BME280;68328;35.990;-86.756;2023-11-21T11:41:56;98317.44;;;22.71;41.96
55022;BME280;68328;35.990;-86.756;2023-11-21T11:46:45;98325.46;;;21.92;42.40
55022;BME280;68328;35.990;-86.756;2023-11-21T11:49:10;98322.93;;;21.91;42.43
55022;BME280;68328;35.990;-86.756;2023-11-21T11:51:35;98327.65;;;21.92;42.38
55022;BME280;68328;35.990;-86.756;2023-11-21T11:54:01;98329.00;;;22.22;42.32
55022;BME280;68328;35.990;-86.756;2023-11-21T11:56:28;98328.22;;;22.01;42.32
55022;BME280;68328;35.990;-86.756;2023-11-21T11:58:52;98337.13;;;22.08;42.26
55022;BME280;68328;35.990;-86.756;2023-11-21T12:01:18;98336.04;;;22.12;42.22
55022;BME280;68328;35.990;-86.756;2023-11-21T12:03:41;98336.73;;;22.17;42.19
55022;BME280;68328;35.990;-86.756;2023-11-21T12:06:07;98343.99;;;22.19;42.18
55022;BME280;68328;35.990;-86.756;2023-11-21T12:08:32;98350.14;;;22.16;42.35
55022;BME280;68328;35.990;-86.756;2023-11-21T12:10:57;98348.09;;;22.22;42.29
55022;BME280;68328;35.990;-86.756;2023-11-21T12:13:23;98352.74;;;22.28;42.15
55022;BME280;68328;35.990;-86.756;2023-11-21T12:15:48;98356.61;;;22.35;42.15
55022;BME280;68328;35.990;-86.756;2023-11-21T12:18:13;98358.34;;;22.36;42.12
55022;BME280;68328;35.990;-86.756;2023-11-21T12:20:38;98357.30;;;22.28;42.22
55022;BME280;68328;35.990;-86.756;2023-11-21T12:23:05;98368.06;;;22.15;42.47
55022;BME280;68328;35.990;-86.756;2023-11-21T12:25:30;98381.42;;;22.08;42.57
55022;BME280;68328;35.990;-86.756;2023-11-21T12:27:54;98371.41;;;22.17;42.47
55022;BME280;68328;35.990;-86.756;2023-11-21T12:30:20;98372.52;;;22.27;42.33
55022;BME280;68328;35.990;-86.756;2023-11-21T12:32:47;98370.49;;;22.27;42.42